الصفحة الرئيسية
METAR-TAF:

METAR-TAF

مطار :

مطار دبي الدولي

إمارة دبي, الإمارات العربية المتحدة

دائرة عرض: 25-15-10N, خط طول: 055-21-52E, ارتفاع: 8 متر

مراقبة الطقس الحالي

تاريخ ووقت الإصدار 1ساعة و 2 دقيقة قبل الساعة 17:00UTC
ريح 7 عقدة من الشرق, الاتجاه يتراوح بين الشرق/الشمال الشرقي و الشرق/الجنوب الشرقي
درجة الحرارة 34°درجة مئوية
الرطوبة 30%
ضغط 1006 hPa
الرؤية 10 كم أو أكثر
الغيوم لا تقل 1500 م ولا وجود لمزنة ركامية السحاب الأسود

METAR: OMDB 221700Z 09007KT 060V120 CAVOK 34/14 Q1006 NOSIG

زمن: 22:02 (18:02 UTC)

توقعات

تاريخ ووقت الإصدار 1ساعة و 2 دقيقة قبل الساعة 17:00UTC
التوقعات صالحة من22 الساعة 18 UTC إلى 24 الساعة 00 UTC
ريح 5 عقدة من الشرق/الشمال الشرقي
الرؤية 10 كم أو أكثر
الغيوم لا تقل 1500 م ولا وجود لمزنة ركامية السحاب الأسود
أصبح
من 22 الساعة 22 UTC إلى 23 الساعة 00 UTC
ريح 12 عقدة من الغرب/الشمال الغربي

TAF: OMDB 221700Z 2218/2400 07005KT CAVOK BECMG 2222/2300 30012KT

أرصاد الطقس والتوقعات من أكثر من 4000 مطار (تقارير الطقس للمطار METAR والتنبؤ بالطقس بالمطارTAF).

المحطات المتاحة هي النقط الصفراء والحمراء على الخريطة.

حرك المؤشر فوق النقطة لمعرفة اسم المحطة.

ثم انقر لمعرفة أرصاد وتوقعات الطقس.

لتغيير الخارطة: اضغط على الأزرار الخضراء مع رمز الصليب الأسود للتكبير. على الزر الأخضر مع شرطة للتصغير، أو على الأسهم الخضراء للخرائط المجاورة.


METAR-TAF: